sensor_id;sensor_type;location;lat;lon;timestamp;P1;durP1;ratioP1;P2;durP2;ratioP2
54959;SDS011;40860;51.710;8.736;2023-02-26T00:03:47;3.70;;;2.50;;
54959;SDS011;40860;51.710;8.736;2023-02-26T00:07:50;6.28;;;2.30;;
54959;SDS011;40860;51.710;8.736;2023-02-26T00:11:53;4.28;;;2.20;;
54959;SDS011;40860;51.710;8.736;2023-02-26T00:15:59;5.20;;;2.20;;
54959;SDS011;40860;51.710;8.736;2023-02-26T00:20:02;2.85;;;1.88;;
54959;SDS011;40860;51.710;8.736;2023-02-26T00:24:07;4.82;;;2.38;;
54959;SDS011;40860;51.710;8.736;2023-02-26T00:28:10;3.28;;;1.90;;
54959;SDS011;40860;51.710;8.736;2023-02-26T00:32:15;3.33;;;2.30;;
54959;SDS011;40860;51.710;8.736;2023-02-26T00:36:20;5.22;;;2.45;;
54959;SDS011;40860;51.710;8.736;2023-02-26T00:40:28;2.50;;;2.20;;
54959;SDS011;40860;51.710;8.736;2023-02-26T00:44:37;2.92;;;2.28;;
54959;SDS011;40860;51.710;8.736;2023-02-26T00:48:44;5.03;;;2.50;;
54959;SDS011;40860;51.710;8.736;2023-02-26T00:53:00;3.63;;;2.78;;
54959;SDS011;40860;51.710;8.736;2023-02-26T00:57:09;4.63;;;2.58;;
54959;SDS011;40860;51.710;8.736;2023-02-26T01:01:12;2.53;;;1.83;;
54959;SDS011;40860;51.710;8.736;2023-02-26T01:05:17;5.47;;;2.60;;
54959;SDS011;40860;51.710;8.736;2023-02-26T01:09:22;3.05;;;2.05;;
54959;SDS011;40860;51.710;8.736;2023-02-26T01:13:27;3.58;;;2.25;;
54959;SDS011;40860;51.710;8.736;2023-02-26T01:17:31;3.10;;;2.28;;
54959;SDS011;40860;51.710;8.736;2023-02-26T01:21:40;6.05;;;2.40;;
54959;SDS011;40860;51.710;8.736;2023-02-26T01:25:49;2.70;;;2.35;;
54959;SDS011;40860;51.710;8.736;2023-02-26T01:29:55;4.95;;;2.70;;
54959;SDS011;40860;51.710;8.736;2023-02-26T01:33:58;4.25;;;2.70;;
54959;SDS011;40860;51.710;8.736;2023-02-26T01:38:10;7.00;;;3.17;;
54959;SDS011;40860;51.710;8.736;2023-02-26T01:42:19;3.58;;;2.60;;
54959;SDS011;40860;51.710;8.736;2023-02-26T01:46:25;4.10;;;2.58;;
54959;SDS011;40860;51.710;8.736;2023-02-26T01:50:34;5.20;;;2.80;;
54959;SDS011;40860;51.710;8.736;2023-02-26T01:54:40;6.03;;;3.25;;
54959;SDS011;40860;51.710;8.736;2023-02-26T01:58:43;3.85;;;2.63;;
54959;SDS011;40860;51.710;8.736;2023-02-26T02:02:49;3.10;;;2.40;;
54959;SDS011;40860;51.710;8.736;2023-02-26T02:06:52;5.30;;;2.22;;
54959;SDS011;40860;51.710;8.736;2023-02-26T02:10:57;4.60;;;2.10;;
54959;SDS011;40860;51.710;8.736;2023-02-26T02:15:03;2.85;;;1.75;;
54959;SDS011;40860;51.710;8.736;2023-02-26T02:19:17;6.13;;;2.22;;
54959;SDS011;40860;51.710;8.736;2023-02-26T02:23:36;3.88;;;2.13;;
54959;SDS011;40860;51.710;8.736;2023-02-26T02:27:46;6.00;;;2.08;;
54959;SDS011;40860;51.710;8.736;2023-02-26T02:32:00;3.33;;;1.67;;
54959;SDS011;40860;51.710;8.736;2023-02-26T02:36:09;3.50;;;1.73;;
54959;SDS011;40860;51.710;8.736;2023-02-26T02:40:17;3.47;;;1.67;;
54959;SDS011;40860;51.710;8.736;2023-02-26T02:44:24;3.53;;;1.83;;
54959;SDS011;40860;51.710;8.736;2023-02-26T02:48:32;3.35;;;1.95;;
54959;SDS011;40860;51.710;8.736;2023-02-26T02:52:40;3.28;;;2.00;;
54959;SDS011;40860;51.710;8.736;2023-02-26T02:56:46;3.17;;;1.83;;
54959;SDS011;40860;51.710;8.736;2023-02-26T03:00:52;3.63;;;1.63;;
54959;SDS011;40860;51.710;8.736;2023-02-26T03:05:01;3.65;;;1.77;;
54959;SDS011;40860;51.710;8.736;2023-02-26T03:09:05;2.22;;;1.60;;
54959;SDS011;40860;51.710;8.736;2023-02-26T03:13:13;2.92;;;1.65;;
54959;SDS011;40860;51.710;8.736;2023-02-26T03:17:19;5.05;;;1.73;;
54959;SDS011;40860;51.710;8.736;2023-02-26T03:21:33;3.33;;;1.83;;
54959;SDS011;40860;51.710;8.736;2023-02-26T03:25:48;4.35;;;1.80;;
54959;SDS011;40860;51.710;8.736;2023-02-26T03:29:57;1.65;;;1.33;;
54959;SDS011;40860;51.710;8.736;2023-02-26T03:34:10;3.83;;;1.50;;
54959;SDS011;40860;51.710;8.736;2023-02-26T03:38:23;2.25;;;1.40;;
54959;SDS011;40860;51.710;8.736;2023-02-26T03:42:35;5.57;;;1.58;;
54959;SDS011;40860;51.710;8.736;2023-02-26T03:46:43;3.35;;;1.77;;
54959;SDS011;40860;51.710;8.736;2023-02-26T03:50:50;2.65;;;1.63;;
54959;SDS011;40860;51.710;8.736;2023-02-26T03:55:21;5.30;;;1.70;;
54959;SDS011;40860;51.710;8.736;2023-02-26T03:59:34;3.08;;;1.50;;
54959;SDS011;40860;51.710;8.736;2023-02-26T04:04:00;3.38;;;1.83;;
54959;SDS011;40860;51.710;8.736;2023-02-26T04:08:07;2.38;;;1.83;;
54959;SDS011;40860;51.710;8.736;2023-02-26T04:12:11;4.10;;;1.50;;
54959;SDS011;40860;51.710;8.736;2023-02-26T04:16:19;2.97;;;1.55;;
54959;SDS011;40860;51.710;8.736;2023-02-26T04:20:22;2.65;;;1.50;;
54959;SDS011;40860;51.710;8.736;2023-02-26T04:24:25;3.90;;;1.70;;
54959;SDS011;40860;51.710;8.736;2023-02-26T04:28:34;2.13;;;1.52;;
54959;SDS011;40860;51.710;8.736;2023-02-26T04:32:38;5.68;;;2.10;;
54959;SDS011;40860;51.710;8.736;2023-02-26T04:36:43;2.45;;;1.50;;
54959;SDS011;40860;51.710;8.736;2023-02-26T04:40:47;2.25;;;1.70;;
54959;SDS011;40860;51.710;8.736;2023-02-26T04:44:52;2.17;;;1.60;;
54959;SDS011;40860;51.710;8.736;2023-02-26T04:48:57;3.15;;;1.85;;
54959;SDS011;40860;51.710;8.736;2023-02-26T04:53:01;3.22;;;1.60;;
54959;SDS011;40860;51.710;8.736;2023-02-26T04:57:04;4.85;;;1.92;;
54959;SDS011;40860;51.710;8.736;2023-02-26T05:01:09;3.63;;;1.70;;
54959;SDS011;40860;51.710;8.736;2023-02-26T05:05:13;3.70;;;1.50;;
54959;SDS011;40860;51.710;8.736;2023-02-26T05:09:16;4.55;;;2.00;;
54959;SDS011;40860;51.710;8.736;2023-02-26T05:13:19;5.57;;;1.77;;
54959;SDS011;40860;51.710;8.736;2023-02-26T05:17:24;3.80;;;2.00;;
54959;SDS011;40860;51.710;8.736;2023-02-26T05:21:27;3.97;;;1.80;;
54959;SDS011;40860;51.710;8.736;2023-02-26T05:25:30;4.15;;;1.88;;
54959;SDS011;40860;51.710;8.736;2023-02-26T05:29:32;5.05;;;2.00;;
54959;SDS011;40860;51.710;8.736;2023-02-26T05:33:38;4.03;;;1.70;;
54959;SDS011;40860;51.710;8.736;2023-02-26T05:37:41;2.85;;;1.80;;
54959;SDS011;40860;51.710;8.736;2023-02-26T05:41:44;3.83;;;1.98;;
54959;SDS011;40860;51.710;8.736;2023-02-26T05:45:48;4.18;;;2.15;;
54959;SDS011;40860;51.710;8.736;2023-02-26T05:49:52;4.40;;;1.83;;
54959;SDS011;40860;51.710;8.736;2023-02-26T05:53:55;5.85;;;1.80;;
54959;SDS011;40860;51.710;8.736;2023-02-26T05:57:58;4.35;;;2.08;;
54959;SDS011;40860;51.710;8.736;2023-02-26T06:02:00;3.25;;;2.08;;
54959;SDS011;40860;51.710;8.736;2023-02-26T06:06:05;3.97;;;2.03;;
54959;SDS011;40860;51.710;8.736;2023-02-26T06:10:08;3.42;;;2.00;;
54959;SDS011;40860;51.710;8.736;2023-02-26T06:14:12;4.57;;;2.10;;
54959;SDS011;40860;51.710;8.736;2023-02-26T06:18:15;7.03;;;2.10;;
54959;SDS011;40860;51.710;8.736;2023-02-26T06:22:19;3.28;;;1.80;;
54959;SDS011;40860;51.710;8.736;2023-02-26T06:26:22;3.47;;;1.95;;
54959;SDS011;40860;51.710;8.736;2023-02-26T06:30:25;3.53;;;2.20;;
54959;SDS011;40860;51.710;8.736;2023-02-26T06:34:28;3.53;;;2.10;;
54959;SDS011;40860;51.710;8.736;2023-02-26T06:38:32;5.82;;;2.10;;
54959;SDS011;40860;51.710;8.736;2023-02-26T06:42:35;5.57;;;1.85;;
54959;SDS011;40860;51.710;8.736;2023-02-26T06:46:38;2.75;;;1.98;;
54959;SDS011;40860;51.710;8.736;2023-02-26T06:50:41;4.35;;;2.13;;
54959;SDS011;40860;51.710;8.736;2023-02-26T06:54:45;3.63;;;1.60;;
54959;SDS011;40860;51.710;8.736;2023-02-26T06:58:48;6.80;;;1.85;;
54959;SDS011;40860;51.710;8.736;2023-02-26T07:02:51;2.92;;;1.65;;
54959;SDS011;40860;51.710;8.736;2023-02-26T07:06:54;2.92;;;1.58;;
54959;SDS011;40860;51.710;8.736;2023-02-26T07:10:58;3.40;;;1.60;;
54959;SDS011;40860;51.710;8.736;2023-02-26T07:15:01;2.40;;;1.73;;
54959;SDS011;40860;51.710;8.736;2023-02-26T07:19:04;3.38;;;1.75;;
54959;SDS011;40860;51.710;8.736;2023-02-26T07:23:07;5.88;;;1.90;;
54959;SDS011;40860;51.710;8.736;2023-02-26T07:27:11;2.75;;;1.33;;
54959;SDS011;40860;51.710;8.736;2023-02-26T07:31:15;5.07;;;1.50;;
54959;SDS011;40860;51.710;8.736;2023-02-26T07:35:19;4.97;;;1.60;;
54959;SDS011;40860;51.710;8.736;2023-02-26T07:43:37;8.52;;;2.00;;
54959;SDS011;40860;51.710;8.736;2023-02-26T07:52:13;6.20;;;1.90;;
54959;SDS011;40860;51.710;8.736;2023-02-26T07:56:27;3.42;;;1.80;;
54959;SDS011;40860;51.710;8.736;2023-02-26T08:04:39;4.07;;;1.60;;
54959;SDS011;40860;51.710;8.736;2023-02-26T08:08:42;2.92;;;1.30;;
54959;SDS011;40860;51.710;8.736;2023-02-26T08:12:45;4.47;;;1.90;;
54959;SDS011;40860;51.710;8.736;2023-02-26T08:16:49;2.08;;;1.00;;
54959;SDS011;40860;51.710;8.736;2023-02-26T08:20:53;3.90;;;1.30;;
54959;SDS011;40860;51.710;8.736;2023-02-26T08:24:56;2.88;;;1.23;;
54959;SDS011;40860;51.710;8.736;2023-02-26T08:28:59;4.78;;;1.52;;
54959;SDS011;40860;51.710;8.736;2023-02-26T08:33:03;2.92;;;1.17;;
54959;SDS011;40860;51.710;8.736;2023-02-26T08:37:06;3.15;;;1.10;;
54959;SDS011;40860;51.710;8.736;2023-02-26T08:41:11;2.80;;;1.00;;
54959;SDS011;40860;51.710;8.736;2023-02-26T08:45:14;3.53;;;1.02;;
54959;SDS011;40860;51.710;8.736;2023-02-26T08:49:18;2.35;;;0.95;;
54959;SDS011;40860;51.710;8.736;2023-02-26T08:53:21;4.75;;;0.93;;
54959;SDS011;40860;51.710;8.736;2023-02-26T08:57:27;1.70;;;1.00;;
54959;SDS011;40860;51.710;8.736;2023-02-26T09:01:30;2.70;;;0.98;;
54959;SDS011;40860;51.710;8.736;2023-02-26T09:05:34;2.78;;;1.25;;
54959;SDS011;40860;51.710;8.736;2023-02-26T09:09:45;4.53;;;1.27;;
54959;SDS011;40860;51.710;8.736;2023-02-26T09:13:48;2.10;;;0.93;;
54959;SDS011;40860;51.710;8.736;2023-02-26T09:17:51;3.08;;;1.00;;
54959;SDS011;40860;51.710;8.736;2023-02-26T09:21:57;4.53;;;1.10;;
54959;SDS011;40860;51.710;8.736;2023-02-26T09:26:00;1.80;;;0.98;;
54959;SDS011;40860;51.710;8.736;2023-02-26T09:30:03;4.63;;;1.00;;
54959;SDS011;40860;51.710;8.736;2023-02-26T09:34:15;3.40;;;1.10;;
54959;SDS011;40860;51.710;8.736;2023-02-26T09:38:21;1.92;;;1.00;;
54959;SDS011;40860;51.710;8.736;2023-02-26T09:42:28;2.08;;;1.13;;
54959;SDS011;40860;51.710;8.736;2023-02-26T09:46:45;4.20;;;0.90;;
54959;SDS011;40860;51.710;8.736;2023-02-26T09:51:06;2.38;;;0.88;;
54959;SDS011;40860;51.710;8.736;2023-02-26T09:55:16;2.50;;;0.90;;
54959;SDS011;40860;51.710;8.736;2023-02-26T09:59:28;6.00;;;1.10;;
54959;SDS011;40860;51.710;8.736;2023-02-26T10:03:43;2.03;;;0.90;;
54959;SDS011;40860;51.710;8.736;2023-02-26T10:07:56;10.45;;;1.20;;
54959;SDS011;40860;51.710;8.736;2023-02-26T10:12:06;2.15;;;0.98;;
54959;SDS011;40860;51.710;8.736;2023-02-26T10:16:13;2.08;;;0.70;;
54959;SDS011;40860;51.710;8.736;2023-02-26T10:20:20;1.30;;;0.65;;
54959;SDS011;40860;51.710;8.736;2023-02-26T10:24:36;2.75;;;1.13;;
54959;SDS011;40860;51.710;8.736;2023-02-26T10:28:48;2.08;;;0.80;;
54959;SDS011;40860;51.710;8.736;2023-02-26T10:32:58;3.25;;;0.93;;
54959;SDS011;40860;51.710;8.736;2023-02-26T10:37:13;1.85;;;0.63;;
54959;SDS011;40860;51.710;8.736;2023-02-26T10:41:22;1.85;;;0.70;;
54959;SDS011;40860;51.710;8.736;2023-02-26T10:45:35;2.42;;;0.88;;
54959;SDS011;40860;51.710;8.736;2023-02-26T10:49:53;1.10;;;0.57;;
54959;SDS011;40860;51.710;8.736;2023-02-26T10:54:02;2.15;;;0.60;;
54959;SDS011;40860;51.710;8.736;2023-02-26T10:58:14;3.28;;;0.75;;
54959;SDS011;40860;51.710;8.736;2023-02-26T11:02:34;1.73;;;0.68;;
54959;SDS011;40860;51.710;8.736;2023-02-26T11:06:40;2.85;;;0.80;;
54959;SDS011;40860;51.710;8.736;2023-02-26T11:15:02;1.88;;;0.60;;
54959;SDS011;40860;51.710;8.736;2023-02-26T11:19:07;1.52;;;0.52;;
54959;SDS011;40860;51.710;8.736;2023-02-26T11:23:11;1.17;;;0.60;;
54959;SDS011;40860;51.710;8.736;2023-02-26T11:27:18;1.15;;;0.52;;
54959;SDS011;40860;51.710;8.736;2023-02-26T11:31:23;1.95;;;0.90;;
54959;SDS011;40860;51.710;8.736;2023-02-26T11:35:28;1.90;;;0.65;;
54959;SDS011;40860;51.710;8.736;2023-02-26T11:39:32;2.15;;;0.63;;
54959;SDS011;40860;51.710;8.736;2023-02-26T11:43:38;2.47;;;0.73;;
54959;SDS011;40860;51.710;8.736;2023-02-26T11:47:45;1.25;;;0.68;;
54959;SDS011;40860;51.710;8.736;2023-02-26T11:52:02;1.17;;;0.60;;
54959;SDS011;40860;51.710;8.736;2023-02-26T11:56:19;1.10;;;0.70;;
54959;SDS011;40860;51.710;8.736;2023-02-26T12:00:28;1.38;;;0.90;;
54959;SDS011;40860;51.710;8.736;2023-02-26T12:04:45;1.67;;;0.50;;
54959;SDS011;40860;51.710;8.736;2023-02-26T12:08:52;1.73;;;0.40;;
54959;SDS011;40860;51.710;8.736;2023-02-26T12:13:00;3.40;;;0.65;;
54959;SDS011;40860;51.710;8.736;2023-02-26T12:17:20;2.03;;;0.70;;
54959;SDS011;40860;51.710;8.736;2023-02-26T12:26:17;1.98;;;0.60;;
54959;SDS011;40860;51.710;8.736;2023-02-26T12:30:35;2.58;;;0.80;;
54959;SDS011;40860;51.710;8.736;2023-02-26T12:34:51;0.57;;;0.57;;
54959;SDS011;40860;51.710;8.736;2023-02-26T12:39:16;2.30;;;0.70;;
54959;SDS011;40860;51.710;8.736;2023-02-26T12:43:40;1.20;;;0.77;;
54959;SDS011;40860;51.710;8.736;2023-02-26T12:47:52;1.25;;;0.52;;
54959;SDS011;40860;51.710;8.736;2023-02-26T12:52:13;1.75;;;0.70;;
54959;SDS011;40860;51.710;8.736;2023-02-26T12:56:32;0.55;;;0.50;;
54959;SDS011;40860;51.710;8.736;2023-02-26T13:01:01;1.92;;;0.73;;
54959;SDS011;40860;51.710;8.736;2023-02-26T13:09:43;1.58;;;0.70;;
54959;SDS011;40860;51.710;8.736;2023-02-26T13:13:58;2.53;;;0.60;;
54959;SDS011;40860;51.710;8.736;2023-02-26T13:18:26;1.30;;;0.68;;
54959;SDS011;40860;51.710;8.736;2023-02-26T13:22:37;1.45;;;0.70;;
54959;SDS011;40860;51.710;8.736;2023-02-26T13:26:43;2.25;;;0.70;;
54959;SDS011;40860;51.710;8.736;2023-02-26T13:30:57;3.50;;;0.75;;
54959;SDS011;40860;51.710;8.736;2023-02-26T13:35:19;2.30;;;0.73;;
54959;SDS011;40860;51.710;8.736;2023-02-26T13:43:59;2.83;;;0.70;;
54959;SDS011;40860;51.710;8.736;2023-02-26T13:48:51;0.60;;;0.40;;
54959;SDS011;40860;51.710;8.736;2023-02-26T13:53:03;1.63;;;0.75;;
54959;SDS011;40860;51.710;8.736;2023-02-26T13:57:36;0.98;;;0.50;;
54959;SDS011;40860;51.710;8.736;2023-02-26T14:01:52;2.25;;;0.70;;
54959;SDS011;40860;51.710;8.736;2023-02-26T14:06:08;2.63;;;0.55;;
54959;SDS011;40860;51.710;8.736;2023-02-26T14:10:25;1.42;;;0.65;;
54959;SDS011;40860;51.710;8.736;2023-02-26T14:14:36;0.60;;;0.45;;
54959;SDS011;40860;51.710;8.736;2023-02-26T14:18:41;2.40;;;0.82;;
54959;SDS011;40860;51.710;8.736;2023-02-26T14:27:32;1.83;;;0.80;;
54959;SDS011;40860;51.710;8.736;2023-02-26T14:31:53;1.73;;;0.70;;
54959;SDS011;40860;51.710;8.736;2023-02-26T14:36:08;3.33;;;1.00;;
54959;SDS011;40860;51.710;8.736;2023-02-26T14:40:19;3.17;;;0.68;;
54959;SDS011;40860;51.710;8.736;2023-02-26T14:44:27;0.65;;;0.52;;
54959;SDS011;40860;51.710;8.736;2023-02-26T14:48:34;2.22;;;0.90;;
54959;SDS011;40860;51.710;8.736;2023-02-26T14:52:50;3.58;;;0.90;;
54959;SDS011;40860;51.710;8.736;2023-02-26T14:57:15;1.33;;;0.80;;
54959;SDS011;40860;51.710;8.736;2023-02-26T15:01:31;0.68;;;0.68;;
54959;SDS011;40860;51.710;8.736;2023-02-26T15:05:49;0.90;;;0.77;;
54959;SDS011;40860;51.710;8.736;2023-02-26T15:10:07;1.83;;;0.90;;
54959;SDS011;40860;51.710;8.736;2023-02-26T15:14:32;1.13;;;0.80;;
54959;SDS011;40860;51.710;8.736;2023-02-26T15:18:49;2.47;;;0.98;;
54959;SDS011;40860;51.710;8.736;2023-02-26T15:23:14;1.05;;;0.60;;
54959;SDS011;40860;51.710;8.736;2023-02-26T15:27:26;0.60;;;0.60;;
54959;SDS011;40860;51.710;8.736;2023-02-26T15:36:05;1.23;;;0.75;;
54959;SDS011;40860;51.710;8.736;2023-02-26T15:40:13;3.78;;;0.80;;
54959;SDS011;40860;51.710;8.736;2023-02-26T15:44:17;2.83;;;1.00;;
54959;SDS011;40860;51.710;8.736;2023-02-26T15:48:24;2.97;;;0.98;;
54959;SDS011;40860;51.710;8.736;2023-02-26T15:52:31;1.90;;;0.75;;
54959;SDS011;40860;51.710;8.736;2023-02-26T15:56:35;1.95;;;0.80;;
54959;SDS011;40860;51.710;8.736;2023-02-26T16:00:41;2.20;;;1.00;;
54959;SDS011;40860;51.710;8.736;2023-02-26T16:04:44;2.90;;;1.05;;
54959;SDS011;40860;51.710;8.736;2023-02-26T16:08:49;1.70;;;0.93;;
54959;SDS011;40860;51.710;8.736;2023-02-26T16:12:52;3.13;;;0.98;;
54959;SDS011;40860;51.710;8.736;2023-02-26T16:16:56;4.30;;;1.40;;
54959;SDS011;40860;51.710;8.736;2023-02-26T16:20:59;3.28;;;0.95;;
54959;SDS011;40860;51.710;8.736;2023-02-26T16:25:27;2.38;;;0.93;;
54959;SDS011;40860;51.710;8.736;2023-02-26T16:29:32;2.03;;;1.15;;
54959;SDS011;40860;51.710;8.736;2023-02-26T16:33:37;1.33;;;1.10;;
54959;SDS011;40860;51.710;8.736;2023-02-26T16:37:42;1.92;;;1.40;;
54959;SDS011;40860;51.710;8.736;2023-02-26T16:42:01;1.35;;;1.00;;
54959;SDS011;40860;51.710;8.736;2023-02-26T16:46:12;3.38;;;1.50;;
54959;SDS011;40860;51.710;8.736;2023-02-26T16:50:17;3.55;;;1.30;;
54959;SDS011;40860;51.710;8.736;2023-02-26T16:54:22;3.47;;;1.48;;
54959;SDS011;40860;51.710;8.736;2023-02-26T16:58:28;2.67;;;1.50;;
54959;SDS011;40860;51.710;8.736;2023-02-26T17:02:33;3.33;;;1.40;;
54959;SDS011;40860;51.710;8.736;2023-02-26T17:06:39;1.83;;;1.35;;
54959;SDS011;40860;51.710;8.736;2023-02-26T17:10:44;1.90;;;1.20;;
54959;SDS011;40860;51.710;8.736;2023-02-26T17:15:11;3.78;;;2.00;;
54959;SDS011;40860;51.710;8.736;2023-02-26T17:19:18;4.68;;;1.58;;
54959;SDS011;40860;51.710;8.736;2023-02-26T17:23:22;5.32;;;1.75;;
54959;SDS011;40860;51.710;8.736;2023-02-26T17:27:31;1.67;;;1.20;;
54959;SDS011;40860;51.710;8.736;2023-02-26T17:31:38;3.75;;;1.45;;
54959;SDS011;40860;51.710;8.736;2023-02-26T17:35:43;2.22;;;1.55;;
54959;SDS011;40860;51.710;8.736;2023-02-26T17:39:47;3.67;;;1.73;;
54959;SDS011;40860;51.710;8.736;2023-02-26T17:43:51;3.03;;;1.75;;
54959;SDS011;40860;51.710;8.736;2023-02-26T17:47:55;4.57;;;2.20;;
54959;SDS011;40860;51.710;8.736;2023-02-26T17:51:59;4.97;;;2.40;;
54959;SDS011;40860;51.710;8.736;2023-02-26T17:56:03;4.03;;;2.40;;
54959;SDS011;40860;51.710;8.736;2023-02-26T18:00:09;2.97;;;2.03;;
54959;SDS011;40860;51.710;8.736;2023-02-26T18:04:17;3.72;;;2.20;;
54959;SDS011;40860;51.710;8.736;2023-02-26T18:08:24;5.88;;;3.45;;
54959;SDS011;40860;51.710;8.736;2023-02-26T18:12:56;3.65;;;2.90;;
54959;SDS011;40860;51.710;8.736;2023-02-26T18:17:02;5.07;;;2.30;;
54959;SDS011;40860;51.710;8.736;2023-02-26T18:21:07;3.13;;;2.80;;
54959;SDS011;40860;51.710;8.736;2023-02-26T18:25:13;2.92;;;2.60;;
54959;SDS011;40860;51.710;8.736;2023-02-26T18:29:17;4.30;;;2.42;;
54959;SDS011;40860;51.710;8.736;2023-02-26T18:33:22;2.00;;;1.70;;
54959;SDS011;40860;51.710;8.736;2023-02-26T18:37:28;4.20;;;2.03;;
54959;SDS011;40860;51.710;8.736;2023-02-26T18:41:34;3.80;;;2.40;;
54959;SDS011;40860;51.710;8.736;2023-02-26T18:45:37;3.90;;;2.30;;
54959;SDS011;40860;51.710;8.736;2023-02-26T18:49:40;5.18;;;2.65;;
54959;SDS011;40860;51.710;8.736;2023-02-26T18:53:45;4.93;;;2.47;;
54959;SDS011;40860;51.710;8.736;2023-02-26T18:57:49;4.53;;;2.05;;
54959;SDS011;40860;51.710;8.736;2023-02-26T19:01:53;4.95;;;2.17;;
54959;SDS011;40860;51.710;8.736;2023-02-26T19:05:56;3.63;;;2.10;;
54959;SDS011;40860;51.710;8.736;2023-02-26T19:10:05;3.78;;;2.28;;
54959;SDS011;40860;51.710;8.736;2023-02-26T19:14:09;5.43;;;2.78;;
54959;SDS011;40860;51.710;8.736;2023-02-26T19:18:12;3.47;;;2.35;;
54959;SDS011;40860;51.710;8.736;2023-02-26T19:22:15;2.72;;;2.05;;
54959;SDS011;40860;51.710;8.736;2023-02-26T19:26:22;2.53;;;2.20;;
54959;SDS011;40860;51.710;8.736;2023-02-26T19:30:31;5.90;;;2.70;;
54959;SDS011;40860;51.710;8.736;2023-02-26T19:34:35;7.40;;;5.20;;
54959;SDS011;40860;51.710;8.736;2023-02-26T19:38:46;4.95;;;2.80;;
54959;SDS011;40860;51.710;8.736;2023-02-26T19:42:59;6.33;;;3.97;;
54959;SDS011;40860;51.710;8.736;2023-02-26T19:47:01;3.42;;;2.80;;
54959;SDS011;40860;51.710;8.736;2023-02-26T19:51:05;4.53;;;3.00;;
54959;SDS011;40860;51.710;8.736;2023-02-26T19:55:08;3.47;;;1.90;;
54959;SDS011;40860;51.710;8.736;2023-02-26T19:59:14;4.07;;;2.30;;
54959;SDS011;40860;51.710;8.736;2023-02-26T20:03:17;1.92;;;1.77;;
54959;SDS011;40860;51.710;8.736;2023-02-26T20:07:20;4.22;;;1.90;;
54959;SDS011;40860;51.710;8.736;2023-02-26T20:11:23;5.78;;;2.00;;
54959;SDS011;40860;51.710;8.736;2023-02-26T20:15:28;2.35;;;1.75;;
54959;SDS011;40860;51.710;8.736;2023-02-26T20:19:30;3.10;;;2.22;;
54959;SDS011;40860;51.710;8.736;2023-02-26T20:23:33;5.35;;;1.92;;
54959;SDS011;40860;51.710;8.736;2023-02-26T20:27:39;2.78;;;1.75;;
54959;SDS011;40860;51.710;8.736;2023-02-26T20:31:43;3.00;;;1.98;;
54959;SDS011;40860;51.710;8.736;2023-02-26T20:35:49;4.20;;;2.40;;
54959;SDS011;40860;51.710;8.736;2023-02-26T20:39:54;4.75;;;2.45;;
54959;SDS011;40860;51.710;8.736;2023-02-26T20:43:57;3.92;;;2.53;;
54959;SDS011;40860;51.710;8.736;2023-02-26T20:48:01;13.60;;;7.40;;
54959;SDS011;40860;51.710;8.736;2023-02-26T20:52:04;3.67;;;3.28;;
54959;SDS011;40860;51.710;8.736;2023-02-26T20:56:06;4.32;;;3.10;;
54959;SDS011;40860;51.710;8.736;2023-02-26T21:00:10;5.90;;;2.58;;
54959;SDS011;40860;51.710;8.736;2023-02-26T21:04:18;4.50;;;2.17;;
54959;SDS011;40860;51.710;8.736;2023-02-26T21:08:28;4.53;;;2.65;;
54959;SDS011;40860;51.710;8.736;2023-02-26T21:16:41;4.03;;;2.67;;
54959;SDS011;40860;51.710;8.736;2023-02-26T21:20:47;2.97;;;2.40;;
54959;SDS011;40860;51.710;8.736;2023-02-26T21:24:50;4.07;;;2.28;;
54959;SDS011;40860;51.710;8.736;2023-02-26T21:28:53;6.50;;;3.63;;
54959;SDS011;40860;51.710;8.736;2023-02-26T21:32:56;7.18;;;3.88;;
54959;SDS011;40860;51.710;8.736;2023-02-26T21:37:00;4.78;;;3.50;;
54959;SDS011;40860;51.710;8.736;2023-02-26T21:41:03;7.72;;;3.92;;
54959;SDS011;40860;51.710;8.736;2023-02-26T21:45:07;9.02;;;5.88;;
54959;SDS011;40860;51.710;8.736;2023-02-26T21:49:11;2.58;;;2.20;;
54959;SDS011;40860;51.710;8.736;2023-02-26T21:53:15;2.58;;;1.92;;
54959;SDS011;40860;51.710;8.736;2023-02-26T21:57:18;5.75;;;2.60;;
54959;SDS011;40860;51.710;8.736;2023-02-26T22:01:21;4.97;;;2.83;;
54959;SDS011;40860;51.710;8.736;2023-02-26T22:05:25;3.22;;;2.65;;
54959;SDS011;40860;51.710;8.736;2023-02-26T22:09:29;3.63;;;2.95;;
54959;SDS011;40860;51.710;8.736;2023-02-26T22:13:33;3.10;;;2.65;;
54959;SDS011;40860;51.710;8.736;2023-02-26T22:17:36;5.35;;;2.95;;
54959;SDS011;40860;51.710;8.736;2023-02-26T22:21:39;4.53;;;2.67;;
54959;SDS011;40860;51.710;8.736;2023-02-26T22:25:43;3.08;;;2.60;;
54959;SDS011;40860;51.710;8.736;2023-02-26T22:29:46;5.03;;;3.25;;
54959;SDS011;40860;51.710;8.736;2023-02-26T22:33:49;4.03;;;2.58;;
54959;SDS011;40860;51.710;8.736;2023-02-26T22:37:54;3.28;;;2.20;;
54959;SDS011;40860;51.710;8.736;2023-02-26T22:41:59;5.15;;;2.35;;
54959;SDS011;40860;51.710;8.736;2023-02-26T22:46:02;6.75;;;2.30;;
54959;SDS011;40860;51.710;8.736;2023-02-26T22:50:05;3.28;;;1.88;;
54959;SDS011;40860;51.710;8.736;2023-02-26T22:54:09;4.38;;;2.03;;
54959;SDS011;40860;51.710;8.736;2023-02-26T22:58:13;3.97;;;1.90;;
54959;SDS011;40860;51.710;8.736;2023-02-26T23:02:16;5.43;;;2.50;;
54959;SDS011;40860;51.710;8.736;2023-02-26T23:06:19;6.03;;;2.80;;
54959;SDS011;40860;51.710;8.736;2023-02-26T23:10:21;4.35;;;2.97;;
54959;SDS011;40860;51.710;8.736;2023-02-26T23:14:26;3.85;;;3.00;;
54959;SDS011;40860;51.710;8.736;2023-02-26T23:18:29;8.18;;;4.95;;
54959;SDS011;40860;51.710;8.736;2023-02-26T23:22:32;6.70;;;4.47;;
54959;SDS011;40860;51.710;8.736;2023-02-26T23:26:35;5.75;;;4.22;;
54959;SDS011;40860;51.710;8.736;2023-02-26T23:30:39;6.50;;;4.63;;
54959;SDS011;40860;51.710;8.736;2023-02-26T23:34:42;5.78;;;4.35;;
54959;SDS011;40860;51.710;8.736;2023-02-26T23:38:45;6.07;;;4.60;;
54959;SDS011;40860;51.710;8.736;2023-02-26T23:42:48;7.18;;;4.63;;
54959;SDS011;40860;51.710;8.736;2023-02-26T23:46:52;6.65;;;4.68;;
54959;SDS011;40860;51.710;8.736;2023-02-26T23:50:56;5.47;;;4.40;;
54959;SDS011;40860;51.710;8.736;2023-02-26T23:54:59;8.27;;;4.95;;
54959;SDS011;40860;51.710;8.736;2023-02-26T23:59:02;7.78;;;4.47;;
